createdAt,value
2019-01-31T00:00:24.386Z,0.63
2019-01-31T00:03:22.442Z,0.62
2019-01-31T00:06:23.420Z,0.61
2019-01-31T00:09:30.401Z,0.64
2019-01-31T00:12:33.882Z,0.66
2019-01-31T00:15:22.580Z,0.63
2019-01-31T00:18:05.360Z,0.59
2019-01-31T00:20:48.351Z,0.61
2019-01-31T00:24:07.025Z,0.59
2019-01-31T00:27:17.893Z,0.63
2019-01-31T00:30:52.247Z,0.66
2019-01-31T00:33:35.650Z,0.62
2019-01-31T00:37:00.254Z,0.66
2019-01-31T00:40:01.037Z,0.68
2019-01-31T00:43:18.206Z,0.69
2019-01-31T00:46:31.558Z,0.68
2019-01-31T00:49:43.840Z,0.71
2019-01-31T00:52:42.654Z,0.75
2019-01-31T00:55:39.104Z,0.70
2019-01-31T00:58:34.681Z,0.69
2019-01-31T01:01:41.775Z,0.66
2019-01-31T01:04:51.685Z,0.64
2019-01-31T01:08:19.090Z,0.62
2019-01-31T01:11:27.619Z,0.62
2019-01-31T01:14:31.399Z,0.62
2019-01-31T01:17:23.192Z,0.65
2019-01-31T01:20:20.839Z,0.66
2019-01-31T01:23:33.044Z,0.58
2019-01-31T01:26:36.723Z,0.62
2019-01-31T01:29:57.387Z,0.62
2019-01-31T01:33:06.175Z,0.66
2019-01-31T01:36:20.721Z,0.63
2019-01-31T01:39:35.490Z,0.57
2019-01-31T01:42:45.459Z,0.55
2019-01-31T01:45:54.147Z,0.62
2019-01-31T01:49:09.165Z,0.64
2019-01-31T01:52:19.120Z,0.67
2019-01-31T01:55:13.222Z,0.66
2019-01-31T01:57:53.543Z,0.69
2019-01-31T02:00:50.776Z,0.69
2019-01-31T02:03:54.733Z,0.68
2019-01-31T02:06:50.980Z,0.68
2019-01-31T02:09:50.487Z,0.65
2019-01-31T02:12:58.446Z,0.71
2019-01-31T02:16:01.194Z,0.68
2019-01-31T02:18:47.951Z,0.70
2019-01-31T02:21:49.989Z,0.67
2019-01-31T02:24:34.025Z,0.62
2019-01-31T02:27:55.117Z,0.62
2019-01-31T02:31:04.349Z,0.67
2019-01-31T02:34:15.078Z,0.68
2019-01-31T02:37:22.338Z,0.64
2019-01-31T02:40:21.305Z,0.63
2019-01-31T02:43:20.716Z,0.64
2019-01-31T02:46:25.043Z,0.62
2019-01-31T02:49:08.525Z,0.64
2019-01-31T02:52:19.275Z,0.63
2019-01-31T02:55:29.201Z,0.64
2019-01-31T02:58:32.283Z,0.67
2019-01-31T03:01:31.916Z,0.69
2019-01-31T03:04:48.804Z,0.69
2019-01-31T03:08:10.340Z,0.69
2019-01-31T03:11:40.662Z,0.72
2019-01-31T03:14:36.812Z,0.72
2019-01-31T03:17:44.756Z,0.70
2019-01-31T03:20:32.817Z,0.70
2019-01-31T03:23:27.832Z,0.72
2019-01-31T03:26:40.017Z,0.72
2019-01-31T03:30:18.309Z,0.69
2019-01-31T03:33:23.158Z,0.70
2019-01-31T03:36:33.723Z,0.72
2019-01-31T03:39:39.173Z,0.63
2019-01-31T03:42:19.153Z,0.65
2019-01-31T03:45:44.029Z,0.67
2019-01-31T03:48:49.720Z,0.67
2019-01-31T03:51:59.606Z,0.68
2019-01-31T03:55:01.900Z,0.67
2019-01-31T03:58:08.814Z,0.67
2019-01-31T04:00:58.717Z,0.64
2019-01-31T04:03:34.872Z,0.68
2019-01-31T04:06:23.848Z,0.65
2019-01-31T04:08:55.334Z,0.65
2019-01-31T04:11:27.067Z,0.62
2019-01-31T04:13:58.469Z,0.66
2019-01-31T04:16:30.320Z,0.62
2019-01-31T04:19:01.895Z,0.69
2019-01-31T04:21:33.742Z,0.75
2019-01-31T04:24:05.421Z,0.59
2019-01-31T04:26:36.974Z,0.62
2019-01-31T04:29:08.797Z,0.58
2019-01-31T04:31:41.026Z,0.66
2019-01-31T04:34:12.886Z,0.63
2019-01-31T04:36:46.799Z,0.69
2019-01-31T04:39:18.956Z,0.69
2019-01-31T04:41:53.813Z,0.72
2019-01-31T04:44:25.109Z,0.68
2019-01-31T04:46:56.449Z,0.65
2019-01-31T04:49:28.456Z,0.72
2019-01-31T04:52:01.706Z,0.72
2019-01-31T04:54:33.778Z,0.73
2019-01-31T04:57:05.494Z,0.74
2019-01-31T04:59:37.451Z,0.71
2019-01-31T05:02:09.149Z,0.69
2019-01-31T05:04:42.985Z,0.69
2019-01-31T05:07:14.591Z,0.72
2019-01-31T05:09:46.759Z,0.65
2019-01-31T05:12:18.008Z,0.62
2019-01-31T05:14:50.068Z,0.64
2019-01-31T05:17:22.623Z,0.56
2019-01-31T05:19:55.146Z,0.61
2019-01-31T05:22:29.792Z,0.68
2019-01-31T05:25:03.381Z,0.75
2019-01-31T05:27:35.385Z,0.78
2019-01-31T05:30:07.313Z,0.77
2019-01-31T05:32:38.470Z,0.76
2019-01-31T05:35:10.189Z,0.78
2019-01-31T05:37:41.570Z,0.77
2019-01-31T05:40:14.782Z,0.80
2019-01-31T05:42:45.975Z,0.84
2019-01-31T05:45:17.433Z,0.88
2019-01-31T05:47:48.760Z,0.88
2019-01-31T05:50:20.106Z,0.88
2019-01-31T05:52:51.533Z,0.86
2019-01-31T05:55:23.051Z,0.84
2019-01-31T05:57:57.916Z,0.85
2019-01-31T06:00:32.347Z,0.83
2019-01-31T06:03:04.041Z,0.75
2019-01-31T06:05:35.305Z,0.75
2019-01-31T06:08:06.798Z,0.77
2019-01-31T06:10:39.605Z,0.76
2019-01-31T06:13:10.710Z,0.78
2019-01-31T06:15:42.760Z,0.73
2019-01-31T06:18:15.531Z,0.72
2019-01-31T06:20:46.655Z,0.70
2019-01-31T06:23:17.737Z,0.70
2019-01-31T06:25:54.598Z,0.70
2019-01-31T06:28:26.962Z,0.68
2019-01-31T06:30:58.825Z,0.66
2019-01-31T06:33:33.312Z,0.72
2019-01-31T06:36:04.783Z,0.72
2019-01-31T06:38:37.742Z,0.70
2019-01-31T06:41:18.288Z,0.70
2019-01-31T06:43:42.403Z,0.69
2019-01-31T06:46:13.730Z,0.69
2019-01-31T06:48:46.493Z,0.69
2019-01-31T06:51:17.462Z,0.68
2019-01-31T06:53:50.948Z,0.70
2019-01-31T06:56:25.913Z,0.64
2019-01-31T06:58:59.261Z,0.70
2019-01-31T07:01:32.256Z,0.74
2019-01-31T07:04:07.387Z,0.76
2019-01-31T07:06:41.310Z,0.77
2019-01-31T07:09:16.340Z,0.79
2019-01-31T07:11:49.402Z,0.76
2019-01-31T07:14:20.919Z,0.78
2019-01-31T07:16:54.341Z,0.80
2019-01-31T07:19:28.095Z,0.83
2019-01-31T07:22:03.547Z,0.80
2019-01-31T07:24:35.716Z,0.80
2019-01-31T07:27:08.973Z,0.84
2019-01-31T07:29:42.087Z,0.88
2019-01-31T07:32:15.843Z,0.94
2019-01-31T07:34:47.976Z,1.00
2019-01-31T07:37:22.117Z,1.01
2019-01-31T07:39:54.771Z,1.05
2019-01-31T07:42:27.140Z,1.08
2019-01-31T07:44:59.223Z,1.11
2019-01-31T07:47:32.961Z,1.18
2019-01-31T07:50:10.588Z,1.18
2019-01-31T07:52:44.518Z,1.25
2019-01-31T07:55:16.871Z,1.31
2019-01-31T07:57:48.431Z,1.30
2019-01-31T08:00:23.909Z,1.34
2019-01-31T08:02:57.211Z,1.39
2019-01-31T08:05:28.294Z,1.44
2019-01-31T08:08:02.594Z,1.49
2019-01-31T08:10:37.755Z,1.54
2019-01-31T08:13:08.822Z,1.63
2019-01-31T08:15:41.371Z,1.61
2019-01-31T08:18:15.570Z,1.62
2019-01-31T08:20:47.793Z,1.79
2019-01-31T08:23:20.379Z,1.85
2019-01-31T08:25:51.481Z,1.87
2019-01-31T08:28:26.220Z,1.79
2019-01-31T08:30:59.310Z,1.87
2019-01-31T08:33:30.434Z,1.92
2019-01-31T08:36:01.614Z,1.93
2019-01-31T08:38:32.918Z,1.95
2019-01-31T08:41:05.156Z,1.96
2019-01-31T08:43:37.604Z,1.93
2019-01-31T08:46:09.293Z,2.03
2019-01-31T08:48:41.637Z,2.14
2019-01-31T08:51:12.782Z,2.04
2019-01-31T08:53:43.857Z,1.98
2019-01-31T08:56:16.921Z,1.96
2019-01-31T08:58:51.852Z,2.07
2019-01-31T09:01:24.752Z,2.09
2019-01-31T09:03:58.499Z,2.06
2019-01-31T09:06:31.953Z,2.09
2019-01-31T09:09:06.189Z,2.00
2019-01-31T09:11:37.742Z,1.95
2019-01-31T09:14:09.009Z,1.96
2019-01-31T09:16:44.809Z,2.04
2019-01-31T09:19:17.512Z,2.04
2019-01-31T09:22:11.879Z,1.77
2019-01-31T09:25:29.468Z,1.85
2019-01-31T09:28:34.890Z,1.84
2019-01-31T09:31:43.610Z,1.87
2019-01-31T09:34:43.756Z,1.83
2019-01-31T09:37:32.964Z,1.79
2019-01-31T09:40:51.371Z,1.76
2019-01-31T09:44:05.191Z,1.85
2019-01-31T09:46:50.559Z,1.84
2019-01-31T09:50:06.029Z,1.85
2019-01-31T09:52:59.770Z,1.91
2019-01-31T09:56:43.744Z,1.97
2019-01-31T09:59:32.621Z,2.04
2019-01-31T10:02:35.525Z,2.12
2019-01-31T10:05:33.993Z,2.14
2019-01-31T10:08:48.149Z,2.17
2019-01-31T10:11:51.229Z,2.32
2019-01-31T10:14:59.430Z,2.40
2019-01-31T10:18:23.927Z,2.35
2019-01-31T10:21:39.289Z,2.24
2019-01-31T10:24:41.329Z,2.34
2019-01-31T10:27:49.721Z,2.43
2019-01-31T10:31:12.940Z,2.43
2019-01-31T10:34:22.757Z,2.50
2019-01-31T10:37:36.784Z,2.62
2019-01-31T10:40:55.497Z,2.67
2019-01-31T10:43:45.690Z,2.61
2019-01-31T10:47:04.939Z,2.76
2019-01-31T10:50:22.755Z,2.90
2019-01-31T10:53:21.363Z,2.93
2019-01-31T10:56:52.738Z,2.93
2019-01-31T11:00:03.012Z,2.93
2019-01-31T11:03:20.261Z,3.02
2019-01-31T11:06:30.131Z,3.12
2019-01-31T11:09:42.539Z,3.13
2019-01-31T11:13:09.684Z,3.20
2019-01-31T11:16:18.846Z,3.14
2019-01-31T11:19:20.508Z,3.20
2019-01-31T11:22:43.243Z,3.24
2019-01-31T11:25:53.099Z,3.26
2019-01-31T11:29:07.899Z,3.26
2019-01-31T11:32:21.914Z,3.24
2019-01-31T11:35:50.725Z,3.34
2019-01-31T11:39:15.820Z,3.31
2019-01-31T11:41:59.913Z,3.32
2019-01-31T11:45:24.532Z,3.37
2019-01-31T11:48:51.773Z,3.44
2019-01-31T11:52:16.999Z,3.58
2019-01-31T11:55:10.082Z,3.60
2019-01-31T11:58:26.511Z,3.54
2019-01-31T12:01:01.244Z,3.53
2019-01-31T12:03:35.937Z,3.46
2019-01-31T12:06:07.455Z,3.32
2019-01-31T12:08:40.733Z,3.28
2019-01-31T12:11:11.845Z,3.25
2019-01-31T12:13:45.517Z,3.30
2019-01-31T12:16:17.556Z,3.38
2019-01-31T12:18:48.544Z,3.55
2019-01-31T12:21:19.965Z,3.77
2019-01-31T12:23:51.923Z,3.85
2019-01-31T12:26:25.139Z,4.02
2019-01-31T12:28:56.118Z,4.29
2019-01-31T12:31:27.952Z,4.60
2019-01-31T12:34:00.086Z,4.90
2019-01-31T12:36:32.750Z,5.02
2019-01-31T12:39:05.709Z,5.14
2019-01-31T12:41:36.720Z,5.05
2019-01-31T12:44:09.197Z,5.01
2019-01-31T12:46:42.772Z,4.97
2019-01-31T12:49:16.270Z,4.91
2019-01-31T12:51:49.260Z,4.89
2019-01-31T12:54:20.246Z,4.92
2019-01-31T12:56:52.553Z,4.80
2019-01-31T12:59:26.356Z,4.66
2019-01-31T13:02:01.008Z,4.59
2019-01-31T13:04:40.539Z,4.56
2019-01-31T13:07:13.470Z,4.49
2019-01-31T13:09:44.964Z,4.46
2019-01-31T13:12:20.800Z,4.29
2019-01-31T13:14:56.682Z,4.37
2019-01-31T13:17:30.282Z,4.45
2019-01-31T13:20:01.359Z,4.71
2019-01-31T13:22:34.798Z,4.84
2019-01-31T13:25:08.985Z,5.06
2019-01-31T13:27:41.234Z,5.09
2019-01-31T13:30:20.117Z,5.20
2019-01-31T13:33:03.012Z,5.25
2019-01-31T13:35:34.074Z,5.18
2019-01-31T13:38:10.057Z,5.19
2019-01-31T13:40:42.269Z,5.26
2019-01-31T13:43:13.553Z,5.16
2019-01-31T13:45:45.772Z,5.20
2019-01-31T13:48:19.384Z,4.98
2019-01-31T13:50:54.790Z,4.86
2019-01-31T13:53:31.036Z,4.94
2019-01-31T13:56:02.370Z,4.78
2019-01-31T13:58:35.834Z,4.76
2019-01-31T14:01:09.167Z,4.66
2019-01-31T14:03:40.469Z,4.67
2019-01-31T14:06:13.061Z,4.62
2019-01-31T14:08:44.773Z,4.64
2019-01-31T14:11:15.842Z,4.59
2019-01-31T14:13:50.294Z,4.82
2019-01-31T14:16:23.038Z,4.80
2019-01-31T14:18:59.562Z,4.62
2019-01-31T14:21:34.781Z,4.79
2019-01-31T14:24:06.906Z,4.73
2019-01-31T14:26:41.065Z,4.77
2019-01-31T14:29:17.158Z,4.69
2019-01-31T14:31:50.166Z,4.55
2019-01-31T14:34:23.667Z,4.47
2019-01-31T14:36:54.678Z,4.15
2019-01-31T14:39:27.938Z,4.00
2019-01-31T14:41:59.426Z,3.98
2019-01-31T14:44:31.949Z,3.98
2019-01-31T14:47:08.287Z,3.87
2019-01-31T14:49:39.847Z,3.81
2019-01-31T14:52:16.104Z,3.69
2019-01-31T14:54:52.604Z,3.59
2019-01-31T14:57:25.363Z,3.43
2019-01-31T14:59:56.899Z,3.46
2019-01-31T15:02:30.516Z,3.42
2019-01-31T15:05:04.419Z,3.35
2019-01-31T15:07:36.659Z,3.21
2019-01-31T15:10:12.294Z,3.10
2019-01-31T15:12:43.272Z,2.99
2019-01-31T15:15:17.200Z,2.90
2019-01-31T15:17:53.002Z,2.84
2019-01-31T15:20:38.061Z,2.76
2019-01-31T15:23:07.418Z,2.66
2019-01-31T15:25:40.831Z,2.58
2019-01-31T15:28:11.937Z,2.50
2019-01-31T15:30:43.009Z,2.42
2019-01-31T15:33:15.112Z,2.30
2019-01-31T15:35:46.157Z,2.25
2019-01-31T15:38:18.952Z,2.17
2019-01-31T15:40:50.533Z,2.12
2019-01-31T15:43:22.349Z,2.08
2019-01-31T15:45:54.717Z,2.02
2019-01-31T15:48:26.185Z,1.82
2019-01-31T15:50:58.029Z,1.78
2019-01-31T15:53:29.387Z,1.69
2019-01-31T15:56:03.066Z,1.63
2019-01-31T15:58:34.458Z,1.59
2019-01-31T16:01:07.590Z,1.57
2019-01-31T16:03:38.906Z,1.50
2019-01-31T16:06:10.181Z,1.33
2019-01-31T16:08:41.384Z,1.29
2019-01-31T16:11:12.581Z,1.31
2019-01-31T16:13:43.929Z,1.25
2019-01-31T16:16:15.818Z,1.25
2019-01-31T16:18:46.990Z,1.26
2019-01-31T16:21:19.704Z,1.17
2019-01-31T16:23:50.773Z,1.14
2019-01-31T16:26:21.992Z,1.13
2019-01-31T16:28:54.629Z,1.17
2019-01-31T16:31:25.860Z,1.12
2019-01-31T16:33:56.965Z,1.09
2019-01-31T16:36:28.176Z,1.07
2019-01-31T16:38:59.756Z,1.03
2019-01-31T16:41:31.063Z,1.02
2019-01-31T16:44:03.014Z,0.97
2019-01-31T16:46:36.333Z,0.98
2019-01-31T16:49:06.920Z,0.96
2019-01-31T16:51:38.004Z,0.94
2019-01-31T16:54:09.679Z,0.88
2019-01-31T16:56:41.108Z,0.81
2019-01-31T16:59:12.430Z,0.79
2019-01-31T17:01:43.651Z,0.76
2019-01-31T17:04:16.511Z,0.76
2019-01-31T17:06:48.091Z,0.72
2019-01-31T17:09:19.261Z,0.70
2019-01-31T17:11:50.378Z,0.67
2019-01-31T17:14:21.471Z,0.63
2019-01-31T17:16:54.187Z,0.61
2019-01-31T17:19:25.337Z,0.57
2019-01-31T17:21:56.526Z,0.50
2019-01-31T17:24:28.164Z,0.47
2019-01-31T17:26:59.414Z,0.39
2019-01-31T17:29:30.591Z,0.36
2019-01-31T17:32:01.931Z,0.34
2019-01-31T17:34:33.031Z,0.29
2019-01-31T17:37:04.257Z,0.27
2019-01-31T17:39:35.535Z,0.21
2019-01-31T17:42:06.873Z,0.17
2019-01-31T17:44:38.093Z,0.13
2019-01-31T17:47:09.212Z,0.12
2019-01-31T17:49:40.471Z,0.10
2019-01-31T17:52:12.003Z,0.05
2019-01-31T17:54:43.132Z,0.03
2019-01-31T17:57:14.385Z,-0.03
2019-01-31T17:59:45.660Z,-0.05
2019-01-31T18:02:19.089Z,-0.09
2019-01-31T18:04:50.503Z,-0.12
2019-01-31T18:07:22.795Z,-0.15
2019-01-31T18:09:54.144Z,-0.23
2019-01-31T18:12:25.523Z,-0.30
2019-01-31T18:14:57.754Z,-0.32
2019-01-31T18:17:30.166Z,-0.35
2019-01-31T18:20:04.042Z,-0.42
2019-01-31T18:22:37.818Z,-0.51
2019-01-31T18:25:10.556Z,-0.53
2019-01-31T18:27:42.598Z,-0.53
2019-01-31T18:30:20.305Z,-0.55
2019-01-31T18:32:52.044Z,-0.57
2019-01-31T18:35:23.649Z,-0.57
2019-01-31T18:37:55.422Z,-0.66
2019-01-31T18:40:28.736Z,-0.66
2019-01-31T18:43:00.017Z,-0.68
2019-01-31T18:45:32.233Z,-0.68
2019-01-31T18:48:03.767Z,-0.72
2019-01-31T18:50:37.999Z,-0.78
2019-01-31T18:53:09.289Z,-0.79
2019-01-31T18:55:40.876Z,-0.82
2019-01-31T18:58:11.958Z,-0.80
2019-01-31T19:00:50.730Z,-0.81
2019-01-31T19:03:23.999Z,-0.85
2019-01-31T19:05:55.283Z,-0.85
2019-01-31T19:08:26.426Z,-0.86
2019-01-31T19:10:57.768Z,-0.84
2019-01-31T19:13:28.857Z,-0.90
2019-01-31T19:16:05.141Z,-0.90
2019-01-31T19:18:33.647Z,-0.93
2019-01-31T19:21:05.210Z,-0.95
2019-01-31T19:23:36.646Z,-1.00
2019-01-31T19:26:07.937Z,-1.02
2019-01-31T19:28:39.408Z,-1.06
2019-01-31T19:31:10.642Z,-1.06
2019-01-31T19:33:41.867Z,-1.07
2019-01-31T19:36:12.966Z,-1.11
2019-01-31T19:38:44.228Z,-1.11
2019-01-31T19:41:15.415Z,-1.14
2019-01-31T19:43:46.877Z,-1.18
2019-01-31T19:46:18.516Z,-1.20
2019-01-31T19:48:49.712Z,-1.23
2019-01-31T19:51:20.849Z,-1.25
2019-01-31T19:53:51.994Z,-1.27
2019-01-31T19:56:23.283Z,-1.29
2019-01-31T19:58:54.915Z,-1.31
2019-01-31T20:01:27.712Z,-1.35
2019-01-31T20:03:58.721Z,-1.36
2019-01-31T20:06:29.887Z,-1.39
2019-01-31T20:09:01.015Z,-1.46
2019-01-31T20:11:33.389Z,-1.44
2019-01-31T20:14:04.536Z,-1.45
2019-01-31T20:16:36.126Z,-1.46
2019-01-31T20:19:08.114Z,-1.48
2019-01-31T20:21:39.750Z,-1.49
2019-01-31T20:24:10.811Z,-1.52
2019-01-31T20:26:41.991Z,-1.53
2019-01-31T20:29:13.095Z,-1.56
2019-01-31T20:31:45.245Z,-1.58
2019-01-31T20:34:16.319Z,-1.61
2019-01-31T20:36:47.454Z,-1.63
2019-01-31T20:39:18.816Z,-1.66
2019-01-31T20:41:54.166Z,-1.68
2019-01-31T20:44:22.688Z,-1.74
2019-01-31T20:46:53.833Z,-1.75
2019-01-31T20:49:24.925Z,-1.78
2019-01-31T20:51:56.122Z,-1.80
2019-01-31T20:54:27.178Z,-1.79
2019-01-31T20:56:58.312Z,-1.82
2019-01-31T20:59:29.372Z,-1.85
2019-01-31T21:02:00.822Z,-1.85
2019-01-31T21:04:32.912Z,-1.90
2019-01-31T21:07:04.119Z,-1.91
2019-01-31T21:09:35.295Z,-1.91
2019-01-31T21:12:06.972Z,-1.95
2019-01-31T21:14:38.066Z,-1.97
2019-01-31T21:17:09.328Z,-2.01
2019-01-31T21:19:40.692Z,-2.01
2019-01-31T21:22:11.815Z,-2.04
2019-01-31T21:24:42.991Z,-2.12
2019-01-31T21:27:14.077Z,-2.10
2019-01-31T21:29:45.240Z,-2.13
2019-01-31T21:32:16.409Z,-2.13
2019-01-31T21:34:47.518Z,-2.17
2019-01-31T21:37:18.582Z,-2.19
2019-01-31T21:39:49.908Z,-2.22
2019-01-31T21:42:20.971Z,-2.22
2019-01-31T21:44:53.481Z,-2.24
2019-01-31T21:47:24.612Z,-2.26
2019-01-31T21:49:55.851Z,-2.25
2019-01-31T21:52:27.026Z,-2.25
2019-01-31T21:54:58.184Z,-2.26
2019-01-31T21:57:29.364Z,-2.24
2019-01-31T22:00:00.459Z,-2.24
2019-01-31T22:02:31.787Z,-2.25
2019-01-31T22:05:02.919Z,-2.27
2019-01-31T22:07:35.207Z,-2.24
2019-01-31T22:10:07.805Z,-2.26
2019-01-31T22:18:17.932Z,-2.22
2019-01-31T22:20:49.804Z,-2.17
2019-01-31T22:23:21.154Z,-2.16
2019-01-31T22:25:52.379Z,-2.16
2019-01-31T22:28:24.219Z,-2.14
2019-01-31T22:30:55.507Z,-2.10
2019-01-31T22:33:26.989Z,-2.10
2019-01-31T22:35:59.518Z,-2.09
2019-01-31T22:38:30.814Z,-2.08
2019-01-31T22:41:02.060Z,-2.08
2019-01-31T22:43:33.352Z,-2.08
2019-01-31T22:46:04.674Z,-2.08
2019-01-31T22:48:35.816Z,-2.10
2019-01-31T22:51:07.111Z,-2.11
2019-01-31T22:53:39.135Z,-2.13
2019-01-31T22:56:10.891Z,-2.15
2019-01-31T22:58:42.423Z,-2.18
2019-01-31T23:02:03.289Z,-2.20
2019-01-31T23:04:34.483Z,-2.21
2019-01-31T23:07:06.256Z,-2.24
2019-01-31T23:09:38.997Z,-2.25
2019-01-31T23:12:10.309Z,-2.27
2019-01-31T23:14:42.938Z,-2.27
2019-01-31T23:17:13.931Z,-2.31
2019-01-31T23:19:45.313Z,-2.33
2019-01-31T23:22:16.703Z,-2.35
2019-01-31T23:24:48.135Z,-2.36
2019-01-31T23:27:19.455Z,-2.38
2019-01-31T23:29:51.620Z,-2.39
2019-01-31T23:32:23.522Z,-2.42
2019-01-31T23:34:54.728Z,-2.45
2019-01-31T23:37:26.529Z,-2.46
2019-01-31T23:39:59.283Z,-2.49
2019-01-31T23:42:30.573Z,-2.50
2019-01-31T23:45:01.957Z,-2.54
2019-01-31T23:47:33.299Z,-2.55
2019-01-31T23:50:07.320Z,-2.59
2019-01-31T23:52:38.872Z,-2.62
2019-01-31T23:55:10.196Z,-2.63
2019-01-31T23:57:41.356Z,-2.66
